createdAt,value
2019-02-26T00:01:19.187Z,6.03
2019-02-26T00:03:46.439Z,6.97
2019-02-26T00:06:16.161Z,6.70
2019-02-26T00:08:42.895Z,6.77
2019-02-26T00:11:10.796Z,5.43
2019-02-26T00:13:38.280Z,5.43
2019-02-26T00:16:07.668Z,5.83
2019-02-26T00:18:34.897Z,5.83
2019-02-26T00:21:02.944Z,6.37
2019-02-26T00:23:31.353Z,5.43
2019-02-26T00:25:58.623Z,6.37
2019-02-26T00:28:25.902Z,5.07
2019-02-26T00:30:54.991Z,6.17
2019-02-26T00:33:24.645Z,6.43
2019-02-26T00:35:51.506Z,6.00
2019-02-26T00:38:19.878Z,6.00
2019-02-26T00:40:47.320Z,5.47
2019-02-26T00:43:14.583Z,6.13
2019-02-26T00:45:41.863Z,5.40
2019-02-26T00:48:09.137Z,6.17
2019-02-26T00:50:37.515Z,6.30
2019-02-26T00:53:05.709Z,6.00
2019-02-26T00:55:34.889Z,6.13
2019-02-26T00:58:03.281Z,6.37
2019-02-26T01:00:33.083Z,6.20
2019-02-26T01:03:01.461Z,7.00
2019-02-26T01:05:29.759Z,6.10
2019-02-26T01:07:57.019Z,6.17
2019-02-26T01:10:24.293Z,6.87
2019-02-26T01:12:51.581Z,6.67
2019-02-26T01:15:18.875Z,7.30
2019-02-26T01:17:46.143Z,7.80
2019-02-26T01:20:14.119Z,7.17
2019-02-26T01:22:42.843Z,6.37
2019-02-26T01:25:12.739Z,6.40
2019-02-26T01:27:45.582Z,6.67
2019-02-26T01:30:18.146Z,5.93
2019-02-26T01:32:43.270Z,6.00
2019-02-26T01:35:12.830Z,6.13
2019-02-26T01:37:41.051Z,6.80
2019-02-26T01:40:13.099Z,7.37
2019-02-26T01:42:39.282Z,7.83
2019-02-26T01:45:08.184Z,6.53
2019-02-26T01:47:35.600Z,7.23
2019-02-26T01:50:04.638Z,6.93
2019-02-26T01:52:33.299Z,6.67
2019-02-26T01:55:02.784Z,6.37
2019-02-26T01:57:30.384Z,6.83
2019-02-26T01:59:57.865Z,7.00
2019-02-26T02:02:27.734Z,6.47
2019-02-26T02:04:55.491Z,5.83
2019-02-26T02:07:28.127Z,6.00
2019-02-26T02:09:56.414Z,6.20
2019-02-26T02:12:27.476Z,5.67
2019-02-26T02:14:54.735Z,7.07
2019-02-26T02:17:22.149Z,5.90
2019-02-26T02:19:49.957Z,6.30
2019-02-26T02:22:19.032Z,5.67
2019-02-26T02:24:48.571Z,6.00
2019-02-26T02:27:19.584Z,6.80
2019-02-26T02:29:48.257Z,6.43
2019-02-26T02:32:15.652Z,6.20
2019-02-26T02:34:43.262Z,5.47
2019-02-26T02:37:10.817Z,5.33
2019-02-26T02:39:38.251Z,6.23
2019-02-26T02:42:05.655Z,5.53
2019-02-26T02:44:33.006Z,5.10
2019-02-26T02:47:01.866Z,5.30
2019-02-26T02:49:30.107Z,6.17
2019-02-26T02:51:59.512Z,5.13
2019-02-26T02:54:28.000Z,4.97
2019-02-26T02:56:56.791Z,5.83
2019-02-26T02:59:24.484Z,5.43
2019-02-26T03:01:54.291Z,6.63
2019-02-26T03:04:22.352Z,5.30
2019-02-26T03:06:50.834Z,5.67
2019-02-26T03:09:19.695Z,5.60
2019-02-26T03:11:49.426Z,6.03
2019-02-26T03:14:18.543Z,5.87
2019-02-26T03:16:47.712Z,6.60
2019-02-26T03:19:16.916Z,6.40
2019-02-26T03:21:45.423Z,6.10
2019-02-26T03:24:13.468Z,7.13
2019-02-26T03:26:40.856Z,6.27
2019-02-26T03:29:08.267Z,7.00
2019-02-26T03:31:40.638Z,7.70
2019-02-26T03:34:10.467Z,7.23
2019-02-26T03:37:36.474Z,7.33
2019-02-26T03:40:03.706Z,6.33
2019-02-26T03:42:33.263Z,7.33
2019-02-26T03:45:02.958Z,7.93
2019-02-26T03:47:29.987Z,6.77
2019-02-26T03:49:57.292Z,6.63
2019-02-26T03:52:24.592Z,6.97
2019-02-26T03:54:52.019Z,7.60
2019-02-26T03:57:22.047Z,7.20
2019-02-26T03:59:49.183Z,7.23
2019-02-26T04:02:20.845Z,7.00
2019-02-26T04:04:51.775Z,6.90
2019-02-26T04:07:18.003Z,6.70
2019-02-26T04:09:47.311Z,6.03
2019-02-26T04:12:15.417Z,6.43
2019-02-26T04:14:44.397Z,6.00
2019-02-26T04:17:15.013Z,6.20
2019-02-26T04:19:44.683Z,6.27
2019-02-26T04:22:39.125Z,6.70
2019-02-26T04:25:13.261Z,6.03
2019-02-26T04:28:12.362Z,6.40
2019-02-26T04:31:23.984Z,5.83
2019-02-26T04:34:53.966Z,5.03
2019-02-26T04:37:53.108Z,5.33
2019-02-26T04:41:00.198Z,5.77
2019-02-26T04:44:12.680Z,5.03
2019-02-26T04:47:13.892Z,5.43
2019-02-26T04:49:42.931Z,5.67
2019-02-26T04:52:14.324Z,5.60
2019-02-26T04:54:43.774Z,5.87
2019-02-26T04:57:12.133Z,6.57
2019-02-26T04:59:46.917Z,5.87
2019-02-26T05:02:16.801Z,5.50
2019-02-26T05:04:47.756Z,5.47
2019-02-26T05:07:17.310Z,5.70
2019-02-26T05:09:44.635Z,5.97
2019-02-26T05:12:11.980Z,5.20
2019-02-26T05:14:39.280Z,5.53
2019-02-26T05:17:06.531Z,5.80
2019-02-26T05:19:33.818Z,5.70
2019-02-26T05:22:01.613Z,5.50
2019-02-26T05:24:30.403Z,5.40
2019-02-26T05:26:57.703Z,5.97
2019-02-26T05:29:24.973Z,5.70
2019-02-26T05:31:52.340Z,5.40
2019-02-26T05:34:20.730Z,4.70
2019-02-26T05:36:48.930Z,4.57
2019-02-26T05:39:20.414Z,5.67
2019-02-26T05:41:45.661Z,5.10
2019-02-26T05:44:12.937Z,5.60
2019-02-26T05:46:40.180Z,5.60
2019-02-26T05:49:12.516Z,5.67
2019-02-26T05:51:38.218Z,6.20
2019-02-26T05:54:08.211Z,6.53
2019-02-26T05:56:37.208Z,6.07
2019-02-26T05:59:06.843Z,6.33
2019-02-26T06:01:33.292Z,7.40
2019-02-26T06:04:00.600Z,20.37
2019-02-26T06:06:27.837Z,21.47
2019-02-26T06:08:57.320Z,16.73
2019-02-26T06:11:28.361Z,13.27
2019-02-26T06:14:04.022Z,12.03
2019-02-26T06:16:30.953Z,10.73
2019-02-26T06:19:02.299Z,8.00
2019-02-26T06:21:29.670Z,8.77
2019-02-26T06:23:56.953Z,7.43
2019-02-26T06:26:28.031Z,7.10
2019-02-26T06:28:53.577Z,8.13
2019-02-26T06:31:22.069Z,7.77
2019-02-26T06:33:50.735Z,8.10
2019-02-26T06:36:19.223Z,7.83
2019-02-26T06:38:49.637Z,7.47
2019-02-26T06:41:16.688Z,7.57
2019-02-26T06:43:47.554Z,7.50
2019-02-26T06:46:14.108Z,8.20
2019-02-26T06:48:41.621Z,8.90
2019-02-26T06:51:08.985Z,9.97
2019-02-26T06:53:36.232Z,8.83
2019-02-26T06:56:03.703Z,9.37
2019-02-26T06:58:30.960Z,9.87
2019-02-26T07:00:59.004Z,9.47
2019-02-26T07:03:26.262Z,9.10
2019-02-26T07:05:53.515Z,9.07
2019-02-26T07:08:21.974Z,8.93
2019-02-26T07:10:49.958Z,8.53
2019-02-26T07:13:17.296Z,8.27
2019-02-26T07:15:45.420Z,9.17
2019-02-26T07:18:16.973Z,9.57
2019-02-26T07:20:46.624Z,9.50
2019-02-26T07:23:12.942Z,10.73
2019-02-26T07:25:42.039Z,8.43
2019-02-26T07:28:10.132Z,9.80
2019-02-26T07:30:38.008Z,9.47
2019-02-26T07:33:08.157Z,9.40
2019-02-26T07:35:37.374Z,9.07
2019-02-26T07:38:04.901Z,10.00
2019-02-26T07:40:33.061Z,8.53
2019-02-26T07:43:04.955Z,8.83
2019-02-26T07:45:32.160Z,9.07
2019-02-26T07:48:01.013Z,9.60
2019-02-26T07:50:31.423Z,9.03
2019-02-26T07:52:59.457Z,10.13
2019-02-26T07:55:27.600Z,9.37
2019-02-26T07:57:55.163Z,9.43
2019-02-26T08:00:22.999Z,9.80
2019-02-26T08:02:52.081Z,10.23
2019-02-26T08:05:21.220Z,10.27
2019-02-26T08:07:51.322Z,9.83
2019-02-26T08:10:19.551Z,8.67
2019-02-26T08:12:47.420Z,9.23
2019-02-26T08:15:15.660Z,9.50
2019-02-26T08:17:47.884Z,9.70
2019-02-26T08:20:15.028Z,9.43
2019-02-26T08:22:43.112Z,8.63
2019-02-26T08:25:10.788Z,9.50
2019-02-26T08:27:38.033Z,8.63
2019-02-26T08:30:08.563Z,7.43
2019-02-26T08:32:35.809Z,8.13
2019-02-26T08:35:03.372Z,9.03
2019-02-26T08:37:30.651Z,9.03
2019-02-26T08:39:58.255Z,8.90
2019-02-26T08:42:25.750Z,7.97
2019-02-26T08:44:54.242Z,8.60
2019-02-26T08:47:23.513Z,8.20
2019-02-26T08:49:50.952Z,7.87
2019-02-26T08:52:21.515Z,8.37
2019-02-26T08:54:47.379Z,8.50
2019-02-26T08:57:14.721Z,7.10
2019-02-26T08:59:42.654Z,7.47
2019-02-26T09:02:11.152Z,8.27
2019-02-26T09:04:40.334Z,7.30
2019-02-26T09:07:07.647Z,7.47
2019-02-26T09:09:34.999Z,7.67
2019-02-26T09:12:03.190Z,6.80
2019-02-26T09:14:34.497Z,8.37
2019-02-26T09:17:02.161Z,7.07
2019-02-26T09:19:31.081Z,6.90
2019-02-26T09:21:59.420Z,6.03
2019-02-26T09:24:28.258Z,7.80
2019-02-26T09:26:57.580Z,6.87
2019-02-26T09:29:31.469Z,7.63
2019-02-26T09:31:58.922Z,7.20
2019-02-26T09:34:29.310Z,6.43
2019-02-26T09:36:58.251Z,6.83
2019-02-26T09:39:27.534Z,6.33
2019-02-26T09:44:51.306Z,6.27
2019-02-26T09:47:30.988Z,6.27
2019-02-26T09:50:06.101Z,7.17
2019-02-26T09:52:37.815Z,6.23
2019-02-26T09:55:12.036Z,4.87
2019-02-26T09:57:39.771Z,6.30
2019-02-26T10:00:11.336Z,6.87
2019-02-26T10:02:42.569Z,6.57
2019-02-26T10:05:13.972Z,7.30
2019-02-26T10:07:43.158Z,6.90
2019-02-26T10:10:19.095Z,6.43
2019-02-26T10:12:46.495Z,6.87
2019-02-26T10:15:14.795Z,7.13
2019-02-26T10:17:45.062Z,7.87
2019-02-26T10:20:22.643Z,8.23
2019-02-26T10:23:03.219Z,9.40
2019-02-26T10:25:32.173Z,8.47
2019-02-26T10:28:03.017Z,9.20
2019-02-26T10:30:32.791Z,8.38
2019-02-26T10:33:02.731Z,7.60
2019-02-26T10:35:33.514Z,7.55
2019-02-26T10:38:03.598Z,8.20
2019-02-26T10:40:50.574Z,9.75
2019-02-26T10:43:09.748Z,8.48
2019-02-26T10:45:41.536Z,8.88
2019-02-26T10:48:08.706Z,9.35
2019-02-26T10:50:42.249Z,9.55
2019-02-26T10:53:13.135Z,9.85
2019-02-26T10:55:41.731Z,8.20
2019-02-26T10:58:12.091Z,9.08
2019-02-26T11:00:55.522Z,10.00
2019-02-26T11:03:22.707Z,10.58
2019-02-26T11:05:52.143Z,9.10
2019-02-26T11:08:20.788Z,9.90
2019-02-26T11:10:50.224Z,10.25
2019-02-26T11:13:20.222Z,10.43
2019-02-26T11:15:48.875Z,10.08
2019-02-26T11:18:18.110Z,10.48
2019-02-26T11:20:55.233Z,10.85
2019-02-26T11:23:30.481Z,9.80
2019-02-26T11:25:51.380Z,10.18
2019-02-26T11:28:19.033Z,9.65
2019-02-26T11:30:49.008Z,9.93
2019-02-26T11:33:16.591Z,9.88
2019-02-26T11:35:46.440Z,9.48
2019-02-26T11:38:14.949Z,9.10
2019-02-26T11:40:46.470Z,8.23
2019-02-26T11:43:15.046Z,7.95
2019-02-26T11:45:44.527Z,8.33
2019-02-26T11:48:12.387Z,8.08
2019-02-26T11:50:44.203Z,7.50
2019-02-26T11:53:10.010Z,7.33
2019-02-26T11:55:37.641Z,7.25
2019-02-26T11:58:09.988Z,6.97
2019-02-26T12:00:57.487Z,7.80
2019-02-26T12:03:27.571Z,7.97
2019-02-26T12:05:56.630Z,7.75
2019-02-26T12:08:25.691Z,7.62
2019-02-26T12:10:57.499Z,7.20
2019-02-26T12:13:24.975Z,6.92
2019-02-26T12:15:52.478Z,6.75
2019-02-26T12:18:22.208Z,7.00
2019-02-26T12:20:54.625Z,6.33
2019-02-26T12:26:11.160Z,6.55
2019-02-26T12:28:40.354Z,6.70
2019-02-26T12:31:10.022Z,6.45
2019-02-26T12:33:37.438Z,5.65
2019-02-26T12:36:10.291Z,6.10
2019-02-26T12:38:39.913Z,5.15
2019-02-26T12:41:09.017Z,4.95
2019-02-26T12:43:40.103Z,3.40
2019-02-26T12:46:08.604Z,3.40
2019-02-26T12:48:44.919Z,3.25
2019-02-26T12:51:13.387Z,3.42
2019-02-26T12:53:46.864Z,4.22
2019-02-26T12:56:14.177Z,2.70
2019-02-26T12:58:44.332Z,3.17
2019-02-26T13:01:10.994Z,3.65
2019-02-26T13:03:39.868Z,2.17
2019-02-26T13:06:09.963Z,2.30
2019-02-26T13:08:39.685Z,1.85
2019-02-26T13:11:06.184Z,2.15
2019-02-26T13:13:33.504Z,2.95
2019-02-26T13:16:00.865Z,3.20
2019-02-26T13:18:28.206Z,2.40
2019-02-26T13:20:59.364Z,4.20
2019-02-26T13:23:24.643Z,3.75
2019-02-26T13:25:51.913Z,3.15
2019-02-26T13:28:19.171Z,3.83
2019-02-26T13:30:46.542Z,2.67
2019-02-26T13:33:13.994Z,2.87
2019-02-26T13:35:42.795Z,3.55
2019-02-26T13:38:10.765Z,3.22
2019-02-26T13:40:38.777Z,2.83
2019-02-26T13:43:07.765Z,3.08
2019-02-26T13:45:35.138Z,3.10
2019-02-26T13:48:02.379Z,2.58
2019-02-26T13:50:29.675Z,2.83
2019-02-26T13:52:57.231Z,2.55
2019-02-26T13:55:24.495Z,2.45
2019-02-26T13:57:51.768Z,2.33
2019-02-26T14:00:26.012Z,1.98
2019-02-26T14:02:48.482Z,2.60
2019-02-26T14:05:15.810Z,2.75
2019-02-26T14:07:43.715Z,3.00
2019-02-26T14:10:12.686Z,2.80
2019-02-26T14:12:40.021Z,2.95
2019-02-26T14:15:08.814Z,2.90
2019-02-26T14:17:36.225Z,2.65
2019-02-26T14:20:04.846Z,3.08
2019-02-26T14:22:32.227Z,4.35
2019-02-26T14:25:00.026Z,3.75
2019-02-26T14:27:27.536Z,4.90
2019-02-26T14:29:54.880Z,2.95
2019-02-26T14:32:22.165Z,3.72
2019-02-26T14:34:49.484Z,4.70
2019-02-26T14:37:16.761Z,3.62
2019-02-26T14:39:46.191Z,3.35
2019-02-26T14:42:13.465Z,3.00
2019-02-26T14:44:40.816Z,2.80
2019-02-26T14:47:08.113Z,2.90
2019-02-26T14:49:35.506Z,2.60
2019-02-26T14:52:07.463Z,2.83
2019-02-26T14:54:34.799Z,2.77
2019-02-26T14:57:04.433Z,2.92
2019-02-26T14:59:33.015Z,3.08
2019-02-26T15:02:00.478Z,5.40
2019-02-26T15:04:30.992Z,5.05
2019-02-26T15:06:58.386Z,5.47
2019-02-26T15:09:25.691Z,5.42
2019-02-26T15:11:53.043Z,5.03
2019-02-26T15:14:20.437Z,3.90
2019-02-26T15:16:54.009Z,2.83
2019-02-26T15:19:21.498Z,3.90
2019-02-26T15:21:48.959Z,4.67
2019-02-26T15:24:24.733Z,3.42
2019-02-26T15:26:58.066Z,8.75
2019-02-26T15:29:25.489Z,5.90
2019-02-26T15:31:59.140Z,5.37
2019-02-26T15:34:26.405Z,30.60
2019-02-26T15:36:53.715Z,6.75
2019-02-26T15:39:37.900Z,3.80
2019-02-26T15:42:05.309Z,3.52
2019-02-26T15:44:32.647Z,3.15
2019-02-26T15:47:02.256Z,3.77
2019-02-26T15:49:29.575Z,3.75
2019-02-26T15:51:57.001Z,3.33
2019-02-26T15:54:27.318Z,3.67
2019-02-26T15:57:28.550Z,2.83
2019-02-26T15:59:55.753Z,3.33
2019-02-26T16:02:28.516Z,3.35
2019-02-26T16:04:55.822Z,2.50
2019-02-26T16:07:56.358Z,2.42
2019-02-26T16:10:32.307Z,2.60
2019-02-26T16:13:06.306Z,3.02
2019-02-26T16:26:10.734Z,3.35
2019-02-26T16:28:38.208Z,3.60
2019-02-26T16:31:05.753Z,3.77
2019-02-26T16:33:33.195Z,3.62
2019-02-26T16:36:00.579Z,2.83
2019-02-26T16:38:27.835Z,3.65
2019-02-26T16:40:55.276Z,3.20
2019-02-26T16:43:22.677Z,3.25
2019-02-26T16:45:50.274Z,3.50
2019-02-26T16:48:21.354Z,3.42
2019-02-26T16:50:46.844Z,3.60
2019-02-26T16:53:14.401Z,3.95
2019-02-26T16:55:41.968Z,3.57
2019-02-26T16:58:09.249Z,3.50
2019-02-26T17:00:36.565Z,3.40
2019-02-26T17:03:04.230Z,3.58
2019-02-26T17:05:31.524Z,2.87
2019-02-26T17:07:58.941Z,2.97
2019-02-26T17:10:29.048Z,3.00
2019-02-26T17:12:56.089Z,3.27
2019-02-26T17:15:27.012Z,3.83
2019-02-26T17:17:54.486Z,3.50
2019-02-26T17:20:23.154Z,3.37
2019-02-26T17:22:50.668Z,4.00
2019-02-26T17:25:18.327Z,3.43
2019-02-26T17:27:45.667Z,4.20
2019-02-26T17:30:13.035Z,3.93
2019-02-26T17:32:40.305Z,4.17
2019-02-26T17:35:07.913Z,4.70
2019-02-26T17:37:35.323Z,3.80
2019-02-26T17:40:03.880Z,4.60
2019-02-26T17:42:31.319Z,4.00
2019-02-26T17:44:58.577Z,4.37
2019-02-26T17:47:26.122Z,4.70
2019-02-26T17:49:53.621Z,4.60
2019-02-26T17:52:23.844Z,5.00
2019-02-26T17:54:51.218Z,4.77
2019-02-26T17:57:18.624Z,4.90
2019-02-26T17:59:46.129Z,5.33
2019-02-26T18:02:13.411Z,5.10
2019-02-26T18:04:40.643Z,5.20
2019-02-26T18:07:09.304Z,5.67
2019-02-26T18:09:36.680Z,6.30
2019-02-26T18:12:03.971Z,5.83
2019-02-26T18:14:32.920Z,6.10
2019-02-26T18:17:00.413Z,5.60
2019-02-26T18:19:27.900Z,6.70
2019-02-26T18:21:55.614Z,6.50
2019-02-26T18:24:23.053Z,5.83
2019-02-26T18:26:50.497Z,6.43
2019-02-26T18:29:17.848Z,6.70
2019-02-26T18:31:45.932Z,5.70
2019-02-26T18:34:14.549Z,7.10
2019-02-26T18:36:45.286Z,6.80
2019-02-26T18:39:11.393Z,7.20
2019-02-26T18:41:38.713Z,6.83
2019-02-26T18:44:06.003Z,6.53
2019-02-26T18:46:33.786Z,7.20
2019-02-26T18:49:02.383Z,6.87
2019-02-26T18:51:29.709Z,6.73
2019-02-26T18:53:57.037Z,6.93
2019-02-26T18:56:24.390Z,6.90
2019-02-26T18:58:51.870Z,8.60
2019-02-26T19:01:19.778Z,8.10
2019-02-26T19:03:47.141Z,8.03
2019-02-26T19:06:15.378Z,7.63
2019-02-26T19:08:43.831Z,8.20
2019-02-26T19:11:16.486Z,8.77
2019-02-26T19:14:00.504Z,9.60
2019-02-26T19:16:28.071Z,8.93
2019-02-26T19:19:00.285Z,9.63
2019-02-26T19:21:27.869Z,9.17
2019-02-26T19:23:55.292Z,7.63
2019-02-26T19:26:22.648Z,7.50
2019-02-26T19:28:50.047Z,7.03
2019-02-26T19:31:17.770Z,6.77
2019-02-26T19:33:45.160Z,6.83
2019-02-26T19:36:13.023Z,5.93
2019-02-26T19:38:41.056Z,6.30
2019-02-26T19:41:12.637Z,6.47
2019-02-26T19:43:40.497Z,6.40
2019-02-26T19:46:07.861Z,6.93
2019-02-26T19:48:36.088Z,7.17
2019-02-26T19:51:06.317Z,8.03
2019-02-26T19:53:34.715Z,9.00
2019-02-26T19:56:05.146Z,10.30
2019-02-26T19:58:32.737Z,9.97
2019-02-26T20:01:00.120Z,11.10
2019-02-26T20:03:27.617Z,10.03
2019-02-26T20:05:57.381Z,20.97
2019-02-26T20:08:24.774Z,24.10
2019-02-26T20:10:54.064Z,22.47
2019-02-26T20:13:21.658Z,14.17
2019-02-26T20:15:49.009Z,8.73
2019-02-26T20:18:20.685Z,7.00
2019-02-26T20:20:46.523Z,7.83
2019-02-26T20:23:14.009Z,7.40
2019-02-26T20:25:42.750Z,7.33
2019-02-26T20:28:10.487Z,6.03
2019-02-26T20:30:37.801Z,5.43
2019-02-26T20:33:05.150Z,5.77
2019-02-26T20:35:32.436Z,5.13
2019-02-26T20:37:59.733Z,7.10
2019-02-26T20:40:27.089Z,7.70
2019-02-26T20:42:54.718Z,11.73
2019-02-26T20:45:22.769Z,16.50
2019-02-26T20:47:50.525Z,17.10
2019-02-26T20:50:21.299Z,14.20
2019-02-26T20:52:46.970Z,13.43
2019-02-26T20:55:18.828Z,11.93
2019-02-26T20:57:44.984Z,11.33
2019-02-26T21:00:14.114Z,10.97
2019-02-26T21:02:41.378Z,11.43
2019-02-26T21:05:08.974Z,11.00
2019-02-26T21:07:36.211Z,10.17
2019-02-26T21:10:04.350Z,9.60
2019-02-26T21:12:31.695Z,10.20
2019-02-26T21:14:59.032Z,9.90
2019-02-26T21:17:26.437Z,11.23
2019-02-26T21:19:53.703Z,10.67
2019-02-26T21:22:22.011Z,10.53
2019-02-26T21:24:50.132Z,28.63
2019-02-26T21:27:17.380Z,31.43
2019-02-26T21:29:44.788Z,22.27
2019-02-26T21:32:12.075Z,18.53
2019-02-26T21:34:39.327Z,18.43
2019-02-26T21:37:07.890Z,13.13
2019-02-26T21:39:35.240Z,12.27
2019-02-26T21:42:02.688Z,11.30
2019-02-26T21:44:29.969Z,9.47
2019-02-26T21:46:57.240Z,8.13
2019-02-26T21:49:25.341Z,9.67
2019-02-26T21:51:52.732Z,9.23
2019-02-26T21:54:24.557Z,15.87
2019-02-26T21:56:51.542Z,35.57
2019-02-26T21:59:18.857Z,35.17
2019-02-26T22:01:46.573Z,23.97
2019-02-26T22:04:14.002Z,22.87
2019-02-26T22:06:44.432Z,23.10
2019-02-26T22:09:10.994Z,58.67
2019-02-26T22:11:39.935Z,34.67
2019-02-26T22:14:07.554Z,19.40
2019-02-26T22:16:34.932Z,25.37
2019-02-26T22:19:06.828Z,27.57
2019-02-26T22:21:31.623Z,25.13
2019-02-26T22:23:59.005Z,21.87
2019-02-26T22:26:26.595Z,7.03
2019-02-26T22:28:54.596Z,4.27
2019-02-26T22:31:21.835Z,4.37
2019-02-26T22:33:49.079Z,4.37
2019-02-26T22:36:16.466Z,3.70
2019-02-26T22:38:46.215Z,3.43
2019-02-26T22:41:13.294Z,2.90
2019-02-26T22:43:40.701Z,3.47
2019-02-26T22:46:08.081Z,3.27
2019-02-26T22:48:35.951Z,5.23
2019-02-26T22:51:09.692Z,8.87
2019-02-26T22:53:37.807Z,9.90
2019-02-26T22:56:08.673Z,10.03
2019-02-26T22:58:36.315Z,11.13
2019-02-26T23:01:30.628Z,9.57
2019-02-26T23:03:56.418Z,9.27
2019-02-26T23:06:23.654Z,9.20
2019-02-26T23:08:50.931Z,9.50
2019-02-26T23:11:18.371Z,10.43
2019-02-26T23:13:45.623Z,9.83
2019-02-26T23:16:18.007Z,11.20
2019-02-26T23:18:42.555Z,11.53
2019-02-26T23:21:10.491Z,10.33
2019-02-26T23:23:37.976Z,11.13
2019-02-26T23:26:08.650Z,19.23
2019-02-26T23:28:34.587Z,26.30
2019-02-26T23:31:01.843Z,21.23
2019-02-26T23:33:29.119Z,16.23
2019-02-26T23:35:56.396Z,17.60
2019-02-26T23:38:23.748Z,17.80
2019-02-26T23:40:51.018Z,18.17
2019-02-26T23:43:18.281Z,16.93
2019-02-26T23:45:45.527Z,15.10
2019-02-26T23:48:12.888Z,15.03
2019-02-26T23:50:40.152Z,13.60
2019-02-26T23:53:07.419Z,13.37
2019-02-26T23:55:34.695Z,13.30
2019-02-26T23:58:01.949Z,11.53
